Time;durP1;ratioP1;P1;durP2;ratioP2;P2;SDS_P1;SDS_P2;PMS_P1;PMS_P2;Temp;Humidity;BMP_temperature;BMP_pressure;BME280_temperature;BME280_humidity;BME280_pressure;Samples;Min_cycle;Max_cycle;Signal;HPM_P1;HPM_P2
2021/10/06 00:01:16;;;;;;;15.53;12.90;;;13.40;99.90;;;;;;5069781;28;20196;-49
2021/10/06 00:03:41;;;;;;;16.03;13.70;;;13.30;99.90;;;;;;5070677;28;20287;-49
2021/10/06 00:06:07;;;;;;;16.93;13.73;;;13.30;99.90;;;;;;5069712;28;20664;-50
2021/10/06 00:08:33;;;;;;;17.07;14.07;;;13.20;99.90;;;;;;5067955;28;20193;-49
2021/10/06 00:10:58;;;;;;;17.67;13.97;;;13.20;99.90;;;;;;5068966;28;20190;-51
2021/10/06 00:13:24;;;;;;;17.10;13.40;;;13.20;99.90;;;;;;5070865;28;20265;-46
2021/10/06 00:15:50;;;;;;;18.57;15.40;;;13.20;99.90;;;;;;5082112;28;20254;-50
2021/10/06 00:18:15;;;;;;;19.23;15.77;;;13.20;99.90;;;;;;5070441;28;20185;-50
2021/10/06 00:20:42;;;;;;;20.17;15.43;;;13.10;99.90;;;;;;5066070;28;20186;-47
2021/10/06 00:23:08;;;;;;;16.20;13.50;;;13.20;99.90;;;;;;5077329;28;20216;-47
2021/10/06 00:25:34;;;;;;;20.40;14.90;;;13.10;99.90;;;;;;5084669;28;20492;-47
2021/10/06 00:27:59;;;;;;;21.73;15.93;;;13.10;99.90;;;;;;5081404;28;20902;-49
2021/10/06 00:30:25;;;;;;;16.67;13.90;;;13.10;99.90;;;;;;5069533;28;20306;-46
2021/10/06 00:32:51;;;;;;;18.03;14.60;;;13.10;99.90;;;;;;5070465;28;20276;-50
2021/10/06 00:35:16;;;;;;;18.90;15.03;;;13.00;99.90;;;;;;5082047;28;20181;-47
2021/10/06 00:37:42;;;;;;;19.93;14.80;;;13.00;99.90;;;;;;5085209;28;20662;-53
2021/10/06 00:40:09;;;;;;;16.23;14.03;;;12.90;99.90;;;;;;5080559;28;20216;-48
2021/10/06 00:42:36;;;;;;;15.67;13.10;;;12.90;99.90;;;;;;5079065;28;20182;-50
2021/10/06 00:45:03;;;;;;;16.03;14.27;;;13.00;99.90;;;;;;5076075;28;20462;-50
2021/10/06 00:47:29;;;;;;;15.57;12.57;;;13.00;99.90;;;;;;5069868;28;20498;-50
2021/10/06 00:49:54;;;;;;;17.27;13.90;;;13.00;99.90;;;;;;5073687;28;20470;-52
2021/10/06 00:52:20;;;;;;;16.20;13.20;;;12.90;99.90;;;;;;5076721;28;20173;-49
2021/10/06 00:54:45;;;;;;;16.13;13.00;;;12.90;99.90;;;;;;5080060;28;20600;-50
2021/10/06 00:57:11;;;;;;;14.23;12.33;;;12.90;99.90;;;;;;5069118;28;20217;-49
2021/10/06 00:59:37;;;;;;;13.50;11.67;;;12.90;99.90;;;;;;5064139;28;20193;-45
2021/10/06 01:02:04;;;;;;;14.50;12.00;;;12.90;99.90;;;;;;5064815;28;20186;-50
2021/10/06 01:04:31;;;;;;;17.07;12.70;;;12.90;99.90;;;;;;5076715;28;21005;-49
2021/10/06 01:06:56;;;;;;;13.87;11.80;;;12.90;99.90;;;;;;5061364;28;20438;-51
2021/10/06 01:09:26;;;;;;;15.77;12.43;;;12.90;99.90;;;;;;5068984;28;20882;-47
2021/10/06 01:11:54;;;;;;;15.63;12.60;;;12.90;99.90;;;;;;5067996;28;20264;-46
2021/10/06 01:14:20;;;;;;;14.30;11.97;;;12.90;99.90;;;;;;5071906;28;20513;-48
2021/10/06 01:16:46;;;;;;;14.20;11.90;;;13.00;99.90;;;;;;5071599;28;20505;-48
2021/10/06 01:19:24;;;;;;;14.10;12.00;;;12.90;99.90;;;;;;5065683;28;20435;-50
2021/10/06 01:21:50;;;;;;;14.77;12.63;;;12.90;99.90;;;;;;5087749;28;20242;-49
2021/10/06 01:24:17;;;;;;;14.47;11.83;;;13.00;99.90;;;;;;5073464;28;20938;-52
2021/10/06 01:26:42;;;;;;;14.33;12.43;;;13.00;99.90;;;;;;5069574;28;20403;-49
2021/10/06 01:29:08;;;;;;;14.30;12.03;;;13.00;99.90;;;;;;5069771;28;21122;-48
2021/10/06 01:31:33;;;;;;;16.23;13.33;;;12.90;99.90;;;;;;5069065;28;20186;-50
2021/10/06 01:33:59;;;;;;;15.33;12.73;;;12.90;99.90;;;;;;5068439;28;20192;-48
2021/10/06 01:36:25;;;;;;;14.70;12.37;;;13.00;99.90;;;;;;5067986;28;20234;-50
2021/10/06 01:38:50;;;;;;;14.87;13.03;;;13.00;99.90;;;;;;5068520;28;20185;-51
2021/10/06 01:41:16;;;;;;;17.00;13.60;;;13.00;99.90;;;;;;5063745;28;20193;-50
2021/10/06 01:43:41;;;;;;;19.33;14.00;;;13.00;99.90;;;;;;5068094;28;20236;-47
2021/10/06 01:46:07;;;;;;;16.20;13.97;;;13.10;99.90;;;;;;5079676;28;20185;-49
2021/10/06 01:48:33;;;;;;;16.80;13.70;;;13.20;99.90;;;;;;5079105;28;20245;-46
2021/10/06 01:50:58;;;;;;;16.00;14.30;;;13.10;99.90;;;;;;5081695;28;20678;-46
2021/10/06 01:53:35;;;;;;;19.23;13.70;;;12.90;99.90;;;;;;5068415;28;20220;-49
2021/10/06 01:56:01;;;;;;;17.80;15.00;;;12.90;99.90;;;;;;5079654;28;20201;-48
2021/10/06 01:58:26;;;;;;;18.03;14.47;;;13.00;99.90;;;;;;5069769;28;20469;-48
2021/10/06 02:00:52;;;;;;;16.03;14.20;;;13.00;99.90;;;;;;5073467;28;20268;-55
2021/10/06 02:03:17;;;;;;;18.00;14.73;;;13.00;99.90;;;;;;5076240;28;20208;-47
2021/10/06 02:05:43;;;;;;;15.90;13.57;;;12.90;99.90;;;;;;5071414;28;20185;-48
2021/10/06 02:08:09;;;;;;;15.57;13.83;;;12.90;99.90;;;;;;5068831;28;20186;-51
2021/10/06 02:10:36;;;;;;;16.20;14.10;;;13.00;99.90;;;;;;5072806;28;20173;-49
2021/10/06 02:13:02;;;;;;;17.63;14.60;;;13.00;99.90;;;;;;5071973;28;20220;-50
2021/10/06 02:15:28;;;;;;;17.10;14.80;;;13.10;99.90;;;;;;5083895;28;20442;-47
2021/10/06 02:17:54;;;;;;;16.27;14.07;;;13.30;99.90;;;;;;5087644;28;20400;-50
2021/10/06 02:20:19;;;;;;;15.30;13.23;;;13.20;99.90;;;;;;5071322;28;20217;-48
2021/10/06 02:22:45;;;;;;;16.93;14.10;;;13.20;99.90;;;;;;5077970;28;20514;-49
2021/10/06 02:25:11;;;;;;;16.57;14.30;;;13.10;99.90;;;;;;5072806;28;20662;-52
2021/10/06 02:27:37;;;;;;;17.40;15.33;;;13.10;99.90;;;;;;5065841;28;20221;-49
2021/10/06 02:30:05;;;;;;;16.00;14.30;;;13.10;99.90;;;;;;5060829;28;20225;-48
2021/10/06 02:32:31;;;;;;;16.80;14.00;;;13.10;99.90;;;;;;5052734;28;20432;-47
2021/10/06 02:34:57;;;;;;;15.30;13.70;;;13.10;99.90;;;;;;5071748;28;20431;-55
2021/10/06 02:37:22;;;;;;;33.90;15.47;;;13.20;99.90;;;;;;5092638;28;20176;-49
2021/10/06 02:39:48;;;;;;;16.50;13.60;;;13.20;99.90;;;;;;5078379;28;20178;-49
2021/10/06 02:42:14;;;;;;;15.00;12.80;;;13.30;99.90;;;;;;5092776;28;20187;-51
2021/10/06 02:44:39;;;;;;;14.50;13.00;;;13.40;99.90;;;;;;5071297;28;20572;-50
2021/10/06 02:47:05;;;;;;;14.60;12.93;;;13.40;99.90;;;;;;5071831;28;20185;-48
2021/10/06 02:49:31;;;;;;;13.57;12.17;;;13.50;99.90;;;;;;5071733;28;20248;-51
2021/10/06 02:51:57;;;;;;;13.77;12.30;;;13.50;99.90;;;;;;5083672;28;20180;-50
2021/10/06 02:54:22;;;;;;;13.53;12.23;;;13.50;99.90;;;;;;5080255;28;20629;-49
2021/10/06 02:56:48;;;;;;;13.90;12.37;;;13.60;99.90;;;;;;5063922;28;20421;-49
2021/10/06 02:59:13;;;;;;;13.67;12.27;;;13.60;99.90;;;;;;5059357;28;20233;-51
2021/10/06 03:01:39;;;;;;;13.40;12.07;;;13.50;99.90;;;;;;5067899;28;20197;-52
2021/10/06 03:04:04;;;;;;;14.23;12.73;;;13.50;99.90;;;;;;5063071;28;20201;-47
2021/10/06 03:06:30;;;;;;;14.00;11.80;;;13.40;99.90;;;;;;5066314;28;20213;-51
2021/10/06 03:08:55;;;;;;;13.50;12.10;;;13.50;99.90;;;;;;5076913;28;20193;-50
2021/10/06 03:11:22;;;;;;;14.13;12.70;;;13.60;99.90;;;;;;5070127;28;20280;-49
2021/10/06 03:13:47;;;;;;;13.83;12.40;;;13.60;99.90;;;;;;5059636;28;20249;-52
2021/10/06 03:16:13;;;;;;;12.77;11.43;;;13.50;99.90;;;;;;5072687;28;20493;-50
2021/10/06 03:18:39;;;;;;;15.77;12.47;;;13.50;99.90;;;;;;5064727;28;20188;-49
2021/10/06 03:21:04;;;;;;;11.87;10.67;;;13.50;99.90;;;;;;5071494;28;20182;-50
2021/10/06 03:23:31;;;;;;;12.40;11.10;;;13.60;99.90;;;;;;5069380;28;20205;-49
2021/10/06 03:25:56;;;;;;;13.10;11.10;;;13.60;99.90;;;;;;5070737;28;20201;-49
2021/10/06 03:28:22;;;;;;;13.20;11.90;;;13.60;99.90;;;;;;5070705;28;20989;-49
2021/10/06 03:30:48;;;;;;;11.50;10.30;;;13.60;99.90;;;;;;5056789;28;20189;-49
2021/10/06 03:33:14;;;;;;;10.80;9.70;;;13.60;99.90;;;;;;5084335;28;20242;-48
2021/10/06 03:35:39;;;;;;;12.33;10.80;;;13.80;99.90;;;;;;5091426;28;20165;-52
2021/10/06 03:38:05;;;;;;;11.77;10.37;;;13.80;99.90;;;;;;5074379;28;20185;-50
2021/10/06 03:40:30;;;;;;;10.20;9.20;;;13.80;99.90;;;;;;5084539;28;20608;-49
2021/10/06 03:42:56;;;;;;;11.37;10.27;;;13.80;99.90;;;;;;5070315;28;20214;-52
2021/10/06 03:45:22;;;;;;;10.87;9.77;;;13.80;99.90;;;;;;5068413;28;20178;-54
2021/10/06 03:47:47;;;;;;;12.13;10.93;;;13.80;99.90;;;;;;5071160;28;20174;-49
2021/10/06 03:50:14;;;;;;;10.33;9.30;;;13.80;99.90;;;;;;5069765;28;20530;-51
2021/10/06 03:52:40;;;;;;;14.07;11.60;;;13.80;99.90;;;;;;5070786;28;20181;-51
2021/10/06 03:55:08;;;;;;;13.50;10.60;;;13.90;99.90;;;;;;5076336;28;20466;-49
2021/10/06 03:57:34;;;;;;;5.40;4.90;;;13.80;99.90;;;;;;5070556;28;21253;-49
2021/10/06 03:59:59;;;;;;;10.17;9.03;;;13.90;99.90;;;;;;5071286;28;20440;-47
2021/10/06 04:02:25;;;;;;;8.70;7.90;;;13.90;99.90;;;;;;5071038;28;20422;-53
2021/10/06 04:04:51;;;;;;;9.90;8.90;;;13.90;99.90;;;;;;5069837;28;21075;-50
2021/10/06 04:07:16;;;;;;;10.63;9.63;;;13.90;99.90;;;;;;5062247;28;20184;-50
2021/10/06 04:09:42;;;;;;;11.50;9.23;;;14.00;99.90;;;;;;5064263;28;20268;-48
2021/10/06 04:12:08;;;;;;;10.13;9.13;;;14.00;99.90;;;;;;5066734;28;21166;-49
2021/10/06 04:14:33;;;;;;;10.67;9.67;;;14.00;99.90;;;;;;5073961;28;20229;-49
2021/10/06 04:16:59;;;;;;;10.30;9.20;;;13.90;99.90;;;;;;5059361;28;20519;-50
2021/10/06 04:19:24;;;;;;;9.30;8.40;;;13.90;99.90;;;;;;5077294;28;21099;-47
2021/10/06 04:21:50;;;;;;;9.37;8.47;;;13.80;99.90;;;;;;5064760;28;20197;-47
2021/10/06 04:24:15;;;;;;;11.23;8.37;;;13.80;99.90;;;;;;5066842;28;20255;-51
2021/10/06 04:26:41;;;;;;;7.80;6.33;;;13.80;99.90;;;;;;5062456;28;20189;-51
2021/10/06 04:29:07;;;;;;;4.67;4.23;;;13.90;99.90;;;;;;5068458;28;20185;-49
2021/10/06 04:31:33;;;;;;;4.50;4.10;;;14.00;99.90;;;;;;5071966;28;20181;-48
2021/10/06 04:33:58;;;;;;;4.93;3.73;;;14.10;99.90;;;;;;5073355;28;20186;-49
2021/10/06 04:36:24;;;;;;;3.70;3.40;;;14.10;99.90;;;;;;5065172;28;20992;-53
2021/10/06 04:38:49;;;;;;;3.17;2.80;;;14.00;99.90;;;;;;5064398;28;20197;-51
2021/10/06 04:41:15;;;;;;;4.20;3.10;;;14.10;99.90;;;;;;5086184;28;20251;-48
2021/10/06 04:43:41;;;;;;;2.70;2.50;;;14.10;99.90;;;;;;5065900;28;20221;-52
2021/10/06 04:46:06;;;;;;;2.63;2.30;;;14.20;99.90;;;;;;5070411;28;20918;-49
2021/10/06 04:48:32;;;;;;;2.40;2.20;;;14.30;99.90;;;;;;5069413;28;20204;-49
2021/10/06 04:50:58;;;;;;;2.30;2.10;;;14.20;99.90;;;;;;5083089;28;20246;-49
2021/10/06 04:53:23;;;;;;;2.27;2.07;;;14.30;99.90;;;;;;5078912;28;20232;-52
2021/10/06 04:55:49;;;;;;;2.07;1.97;;;14.30;99.90;;;;;;5068563;28;20546;-50
2021/10/06 04:58:15;;;;;;;2.60;2.20;;;14.40;99.90;;;;;;5067017;28;20189;-51
2021/10/06 05:00:40;;;;;;;2.17;2.00;;;14.30;99.90;;;;;;5068476;28;20565;-52
2021/10/06 05:03:11;;;;;;;2.17;1.87;;;14.30;99.90;;;;;;5087339;28;20516;-52
2021/10/06 05:05:38;;;;;;;2.10;1.90;;;14.30;99.90;;;;;;5088398;28;20628;-49
2021/10/06 05:08:05;;;;;;;1.87;1.77;;;14.30;99.90;;;;;;5070773;28;20445;-48
2021/10/06 05:10:31;;;;;;;1.73;1.60;;;14.20;99.90;;;;;;5082603;28;20467;-50
2021/10/06 05:12:56;;;;;;;2.43;1.80;;;14.20;99.90;;;;;;5068930;28;20416;-49
2021/10/06 05:15:22;;;;;;;2.43;2.23;;;14.30;99.90;;;;;;5066842;28;20252;-49
2021/10/06 05:17:48;;;;;;;2.57;2.10;;;14.40;99.90;;;;;;5069224;28;20659;-50
2021/10/06 05:20:14;;;;;;;2.00;1.90;;;14.30;99.90;;;;;;5066434;28;20434;-47
2021/10/06 05:22:39;;;;;;;2.40;2.20;;;14.20;99.90;;;;;;5063623;28;20186;-48
2021/10/06 05:25:05;;;;;;;2.50;2.30;;;14.10;99.90;;;;;;5049124;28;20198;-49
2021/10/06 05:27:31;;;;;;;2.70;2.50;;;14.00;99.90;;;;;;5051271;28;20180;-50
2021/10/06 05:29:58;;;;;;;2.40;2.20;;;13.90;99.90;;;;;;5069137;28;20173;-50
2021/10/06 05:32:24;;;;;;;2.27;2.07;;;13.90;99.90;;;;;;5069047;28;20174;-50
2021/10/06 05:34:49;;;;;;;2.70;2.03;;;13.90;99.90;;;;;;5069289;28;20420;-47
2021/10/06 05:37:15;;;;;;;2.20;2.00;;;13.80;99.90;;;;;;5074457;28;20706;-47
2021/10/06 05:39:41;;;;;;;2.90;2.00;;;13.80;99.90;;;;;;5089362;28;20438;-47
2021/10/06 05:42:07;;;;;;;2.53;2.10;;;13.80;99.90;;;;;;5089137;28;20172;-49
2021/10/06 05:44:33;;;;;;;1.90;1.60;;;13.90;99.90;;;;;;5068548;28;20483;-49
2021/10/06 05:46:58;;;;;;;2.03;1.80;;;13.80;99.90;;;;;;5068982;28;20173;-49
2021/10/06 05:49:24;;;;;;;2.20;2.00;;;13.80;99.90;;;;;;5068617;28;20185;-52
2021/10/06 05:51:50;;;;;;;2.07;1.87;;;13.80;99.90;;;;;;5079352;28;20255;-48
2021/10/06 05:54:15;;;;;;;3.10;2.13;;;13.80;99.90;;;;;;5063466;28;20182;-49
2021/10/06 05:56:41;;;;;;;2.53;1.87;;;13.90;99.90;;;;;;5068229;28;20183;-52
2021/10/06 05:59:06;;;;;;;1.80;1.70;;;14.00;99.90;;;;;;5083550;28;20189;-49
2021/10/06 06:01:32;;;;;;;1.90;1.80;;;14.00;99.90;;;;;;5087225;28;20181;-49
2021/10/06 06:03:58;;;;;;;2.00;1.90;;;14.00;99.90;;;;;;5073276;28;20463;-45
2021/10/06 06:06:23;;;;;;;2.50;1.60;;;14.20;99.90;;;;;;5080886;28;20235;-51
2021/10/06 06:08:49;;;;;;;4.13;1.80;;;14.20;99.90;;;;;;5077397;28;20185;-50
2021/10/06 06:11:14;;;;;;;1.70;1.60;;;14.20;99.90;;;;;;5079987;28;20190;-47
2021/10/06 06:13:40;;;;;;;1.93;1.70;;;14.30;99.90;;;;;;5088302;28;20216;-51
2021/10/06 06:16:06;;;;;;;3.90;1.60;;;14.30;99.90;;;;;;5084288;28;20216;-51
2021/10/06 06:18:31;;;;;;;2.77;2.00;;;14.20;99.90;;;;;;5076303;28;20201;-48
2021/10/06 06:20:57;;;;;;;1.83;1.67;;;14.30;99.90;;;;;;5081745;28;20189;-50
2021/10/06 06:23:23;;;;;;;2.30;2.10;;;14.30;99.90;;;;;;5081778;28;20551;-46
2021/10/06 06:25:50;;;;;;;3.60;1.80;;;14.30;99.90;;;;;;5061536;28;20224;-53
2021/10/06 06:28:15;;;;;;;2.40;2.20;;;14.40;99.90;;;;;;5080759;28;20177;-48
2021/10/06 06:30:41;;;;;;;2.27;1.93;;;14.40;99.90;;;;;;5068962;28;20794;-49
2021/10/06 06:33:07;;;;;;;2.13;1.93;;;14.40;99.90;;;;;;5066482;28;20178;-46
2021/10/06 06:35:32;;;;;;;2.60;2.07;;;14.50;99.90;;;;;;5070489;28;20189;-52
2021/10/06 06:37:58;;;;;;;3.73;2.20;;;14.50;99.90;;;;;;5068040;28;20213;-49
2021/10/06 06:40:24;;;;;;;2.20;2.00;;;14.50;99.90;;;;;;5068078;28;20632;-48
2021/10/06 06:42:50;;;;;;;2.43;1.77;;;14.60;99.90;;;;;;5060851;28;20218;-48
2021/10/06 06:45:15;;;;;;;2.20;2.00;;;14.60;99.90;;;;;;5084341;28;20213;-49
2021/10/06 06:47:41;;;;;;;2.57;2.23;;;14.70;99.90;;;;;;5091552;28;20862;-47
2021/10/06 06:50:08;;;;;;;1.80;1.70;;;14.70;99.90;;;;;;5090617;28;20259;-53
2021/10/06 06:52:34;;;;;;;2.13;1.87;;;14.80;99.90;;;;;;5080189;28;20523;-52
2021/10/06 06:55:00;;;;;;;2.73;1.97;;;14.90;99.90;;;;;;5069388;28;20519;-51
2021/10/06 06:57:25;;;;;;;2.90;2.40;;;14.90;99.90;;;;;;5066086;28;20278;-50
2021/10/06 06:59:51;;;;;;;3.80;2.50;;;14.80;99.90;;;;;;5051312;28;20175;-48
2021/10/06 07:02:16;;;;;;;2.17;2.07;;;14.90;99.90;;;;;;5070257;28;20192;-55
2021/10/06 07:04:42;;;;;;;2.33;2.13;;;15.00;99.90;;;;;;5067630;28;20241;-52
2021/10/06 07:07:12;;;;;;;4.17;2.40;;;15.00;99.90;;;;;;5068486;28;20186;-51
2021/10/06 07:09:46;;;;;;;2.20;2.10;;;15.00;99.90;;;;;;5060116;28;20231;-53
2021/10/06 07:12:12;;;;;;;2.70;2.50;;;14.90;99.90;;;;;;5068720;28;20404;-53
2021/10/06 07:14:37;;;;;;;2.40;2.10;;;14.90;99.90;;;;;;5070508;28;20446;-53
2021/10/06 07:17:03;;;;;;;2.30;2.10;;;14.90;99.90;;;;;;5063380;28;20977;-53
2021/10/06 07:19:28;;;;;;;2.60;2.40;;;14.80;99.90;;;;;;5065492;28;20188;-49
2021/10/06 07:21:54;;;;;;;4.33;2.60;;;14.80;99.90;;;;;;5068100;28;20293;-54
2021/10/06 07:24:19;;;;;;;2.50;2.30;;;14.70;99.90;;;;;;5068619;28;20279;-50
2021/10/06 07:26:45;;;;;;;2.30;2.10;;;14.50;99.90;;;;;;5068659;28;20182;-53
2021/10/06 07:29:10;;;;;;;2.57;2.37;;;14.50;99.90;;;;;;5068222;28;20178;-54
2021/10/06 07:31:36;;;;;;;2.70;2.37;;;14.40;99.90;;;;;;5068139;28;20260;-54
2021/10/06 07:34:02;;;;;;;3.33;2.40;;;14.40;99.90;;;;;;5068802;28;20709;-54
2021/10/06 07:36:28;;;;;;;3.00;2.70;;;14.40;99.90;;;;;;5067678;28;20186;-53
2021/10/06 07:38:55;;;;;;;2.40;2.30;;;14.40;99.90;;;;;;5068179;28;20220;-53
2021/10/06 07:41:21;;;;;;;2.83;2.60;;;14.40;99.90;;;;;;5068026;28;20419;-51
2021/10/06 07:43:46;;;;;;;2.70;2.30;;;14.50;99.90;;;;;;5067920;28;20893;-55
2021/10/06 07:46:12;;;;;;;2.83;2.73;;;14.60;99.90;;;;;;5066144;28;20185;-53
2021/10/06 07:48:38;;;;;;;3.60;2.70;;;14.70;99.90;;;;;;5069839;28;20498;-52
2021/10/06 07:51:04;;;;;;;2.73;2.60;;;14.90;99.90;;;;;;5069092;28;20194;-54
2021/10/06 07:53:29;;;;;;;2.70;2.50;;;15.20;99.90;;;;;;5069918;28;20786;-55
2021/10/06 07:55:55;;;;;;;3.90;2.90;;;15.50;99.90;;;;;;5070224;28;20628;-55
2021/10/06 07:58:20;;;;;;;2.70;2.50;;;15.70;99.90;;;;;;5074017;28;20190;-56
2021/10/06 08:00:46;;;;;;;2.90;2.70;;;15.80;99.90;;;;;;5065099;28;20219;-53
2021/10/06 08:03:11;;;;;;;2.80;2.60;;;16.00;99.90;;;;;;5090204;28;20193;-53
2021/10/06 08:05:37;;;;;;;3.10;2.80;;;16.10;99.90;;;;;;5084542;28;20192;-55
2021/10/06 08:08:03;;;;;;;3.13;2.93;;;16.40;99.90;;;;;;5063327;28;20246;-57
2021/10/06 08:10:28;;;;;;;3.93;3.30;;;17.00;99.90;;;;;;5068874;28;20178;-51
2021/10/06 08:12:54;;;;;;;2.90;2.70;;;17.40;98.00;;;;;;5068739;28;20420;-53
2021/10/06 08:15:20;;;;;;;2.67;2.47;;;17.70;97.80;;;;;;5061955;28;20194;-55
2021/10/06 08:17:45;;;;;;;2.90;2.70;;;17.90;95.50;;;;;;5068609;28;20620;-57
2021/10/06 08:20:11;;;;;;;3.30;3.00;;;18.00;94.30;;;;;;5068438;28;20181;-49
2021/10/06 08:22:37;;;;;;;3.10;2.80;;;18.20;94.20;;;;;;5068354;28;20196;-52
2021/10/06 08:25:03;;;;;;;3.60;3.30;;;18.50;93.80;;;;;;5068643;28;20234;-49
2021/10/06 08:27:28;;;;;;;3.47;3.17;;;18.80;93.20;;;;;;5064451;28;20197;-56
2021/10/06 08:29:54;;;;;;;2.90;2.70;;;19.20;92.80;;;;;;5059873;28;20431;-54
2021/10/06 08:32:19;;;;;;;3.33;3.13;;;19.30;91.70;;;;;;5064539;28;20985;-56
2021/10/06 08:34:45;;;;;;;3.23;2.93;;;19.70;91.60;;;;;;5080552;28;20218;-54
2021/10/06 08:37:11;;;;;;;2.87;2.70;;;19.80;90.20;;;;;;5071736;28;20174;-56
2021/10/06 08:39:36;;;;;;;3.50;3.30;;;19.70;87.60;;;;;;5070803;28;20203;-53
2021/10/06 08:42:04;;;;;;;3.07;2.87;;;19.90;86.60;;;;;;5072534;28;20191;-52
2021/10/06 08:44:34;;;;;;;3.20;3.00;;;20.20;83.90;;;;;;5071361;28;20257;-54
2021/10/06 08:47:00;;;;;;;3.00;2.90;;;20.40;81.90;;;;;;5063399;28;20931;-51
2021/10/06 08:49:27;;;;;;;3.00;2.80;;;20.10;80.30;;;;;;5060501;28;20415;-50
2021/10/06 08:51:53;;;;;;;3.07;2.87;;;19.40;80.70;;;;;;5060451;28;20190;-54
2021/10/06 08:54:19;;;;;;;3.60;3.30;;;18.70;83.10;;;;;;5062980;28;20479;-50
2021/10/06 08:56:48;;;;;;;3.40;3.20;;;17.90;86.30;;;;;;5060049;28;20468;-52
2021/10/06 08:59:13;;;;;;;3.47;3.20;;;17.60;87.00;;;;;;5061762;28;20191;-52
2021/10/06 09:01:43;;;;;;;3.70;3.07;;;17.70;87.90;;;;;;5064769;28;20995;-51
2021/10/06 09:04:09;;;;;;;3.07;2.87;;;17.60;88.80;;;;;;5068075;28;20246;-49
2021/10/06 09:06:36;;;;;;;2.50;2.40;;;17.50;88.40;;;;;;5061710;28;20458;-52
2021/10/06 09:09:23;;;;;;;3.60;2.73;;;17.40;89.20;;;;;;5064814;28;20424;-53
2021/10/06 09:11:52;;;;;;;3.10;2.90;;;17.60;90.00;;;;;;5068296;28;20407;-55
2021/10/06 09:14:18;;;;;;;3.13;2.93;;;17.90;89.60;;;;;;5065977;28;20427;-49
2021/10/06 09:16:46;;;;;;;2.73;2.53;;;18.50;88.50;;;;;;5066518;28;20499;-53
2021/10/06 09:19:12;;;;;;;3.00;2.80;;;18.60;86.20;;;;;;5067675;28;20514;-50
2021/10/06 09:21:57;;;;;;;3.20;3.10;;;18.80;85.60;;;;;;5064805;28;20450;-53
2021/10/06 09:24:24;;;;;;;2.70;2.50;;;18.70;85.60;;;;;;5064592;28;20836;-51
2021/10/06 09:27:04;;;;;;;2.97;2.77;;;18.40;88.40;;;;;;5061727;28;20484;-54
2021/10/06 09:29:30;;;;;;;5.37;3.50;;;18.30;87.10;;;;;;5058210;28;20827;-52
2021/10/06 09:31:55;;;;;;;3.23;3.03;;;18.10;89.90;;;;;;5080426;28;20414;-52
2021/10/06 09:34:21;;;;;;;3.00;2.80;;;18.10;89.50;;;;;;5066575;28;20270;-52
2021/10/06 09:36:46;;;;;;;3.07;2.97;;;18.10;89.50;;;;;;5068570;28;20189;-52
2021/10/06 09:39:12;;;;;;;2.90;2.70;;;18.30;89.90;;;;;;5067193;28;20267;-53
2021/10/06 09:41:49;;;;;;;3.10;2.80;;;18.10;87.50;;;;;;5071944;28;20262;-50
2021/10/06 09:44:19;;;;;;;3.00;2.80;;;18.00;88.20;;;;;;5066141;28;20260;-51
2021/10/06 09:47:02;;;;;;;2.73;2.60;;;17.60;89.70;;;;;;5070291;28;20458;-50
2021/10/06 09:49:35;;;;;;;3.00;2.90;;;17.60;89.80;;;;;;5079237;28;20439;-54
2021/10/06 09:52:22;;;;;;;2.93;2.70;;;17.50;90.60;;;;;;5088067;28;20415;-52
2021/10/06 09:54:49;;;;;;;4.17;2.90;;;17.80;91.40;;;;;;5066374;28;20952;-54
2021/10/06 09:57:34;;;;;;;3.97;2.77;;;18.10;88.80;;;;;;5073191;28;20452;-49
2021/10/06 10:00:09;;;;;;;3.10;2.83;;;18.50;89.40;;;;;;5076172;28;20456;-49
2021/10/06 10:02:36;;;;;;;3.20;3.00;;;18.90;85.30;;;;;;5065721;28;20960;-54
2021/10/06 10:05:04;;;;;;;2.57;2.37;;;19.40;84.40;;;;;;5067842;28;21036;-51
2021/10/06 10:07:29;;;;;;;2.90;2.80;;;19.50;80.50;;;;;;5065960;28;21229;-55
2021/10/06 10:09:55;;;;;;;2.90;2.70;;;19.30;82.10;;;;;;5069557;28;20432;-54
2021/10/06 10:12:22;;;;;;;2.83;2.63;;;19.20;82.60;;;;;;5078950;28;20247;-53
2021/10/06 10:14:49;;;;;;;3.07;2.80;;;19.30;82.60;;;;;;5061125;28;20683;-54
2021/10/06 10:17:16;;;;;;;2.70;2.50;;;19.10;82.40;;;;;;5061705;28;20472;-55
2021/10/06 10:19:43;;;;;;;2.90;2.70;;;18.90;81.60;;;;;;5074497;28;20462;-52
2021/10/06 10:22:10;;;;;;;2.47;2.27;;;18.90;84.00;;;;;;5071318;28;20474;-55
2021/10/06 10:24:45;;;;;;;2.60;2.50;;;18.90;83.60;;;;;;5071841;28;20471;-53
2021/10/06 10:27:12;;;;;;;2.97;2.77;;;19.00;83.10;;;;;;5069182;28;21048;-54
2021/10/06 10:29:50;;;;;;;2.50;2.40;;;19.00;82.50;;;;;;5066923;28;21145;-53
2021/10/06 10:32:23;;;;;;;2.67;2.47;;;19.10;84.40;;;;;;5069574;28;20408;-54
2021/10/06 10:35:03;;;;;;;3.30;3.10;;;19.20;83.70;;;;;;5070310;28;20472;-53
2021/10/06 10:37:47;;;;;;;3.03;2.83;;;19.20;82.10;;;;;;5072520;28;20472;-50
2021/10/06 10:40:31;;;;;;;2.60;2.40;;;19.40;84.20;;;;;;5073409;28;20411;-53
2021/10/06 10:43:20;;;;;;;2.60;2.50;;;19.90;81.30;;;;;;5079928;28;20451;-53
2021/10/06 10:45:59;;;;;;;3.30;3.10;;;19.80;79.10;;;;;;5072933;28;20423;-53
2021/10/06 10:48:30;;;;;;;3.30;3.10;;;19.20;80.30;;;;;;5064825;28;20502;-54
2021/10/06 10:50:55;;;;;;;3.10;2.90;;;19.10;82.40;;;;;;5067535;28;20408;-51
2021/10/06 10:53:42;;;;;;;3.20;2.93;;;18.90;81.50;;;;;;5069356;28;20940;-54
2021/10/06 10:56:11;;;;;;;2.50;2.40;;;19.00;82.20;;;;;;5071634;28;20189;-52
2021/10/06 10:58:41;;;;;;;2.80;2.60;;;19.50;80.90;;;;;;5079802;28;20418;-54
2021/10/06 11:01:15;;;;;;;2.43;2.33;;;19.70;77.60;;;;;;5077128;28;20457;-59
2021/10/06 11:04:14;;;;;;;3.00;2.83;;;19.70;78.70;;;;;;5069874;28;20459;-50
2021/10/06 11:06:44;;;;;;;3.10;3.00;;;19.90;77.40;;;;;;5074202;28;20451;-50
2021/10/06 11:09:31;;;;;;;3.03;2.83;;;19.90;79.00;;;;;;5069763;28;20445;-56
2021/10/06 11:12:06;;;;;;;3.50;3.23;;;19.70;78.20;;;;;;5070956;28;20473;-53
2021/10/06 11:14:36;;;;;;;3.53;3.40;;;19.60;77.80;;;;;;5071342;28;20994;-52
2021/10/06 11:17:15;;;;;;;4.40;2.90;;;19.50;78.70;;;;;;5069034;28;20438;-53
2021/10/06 11:19:42;;;;;;;3.20;2.90;;;19.00;77.60;;;;;;5071334;28;20431;-56
2021/10/06 11:22:23;;;;;;;2.97;2.77;;;18.70;79.30;;;;;;5070767;28;20888;-54
2021/10/06 11:24:49;;;;;;;3.60;3.40;;;18.20;80.20;;;;;;5070077;28;20461;-53
2021/10/06 11:27:15;;;;;;;4.13;3.93;;;17.90;81.50;;;;;;5079468;28;21198;-51
2021/10/06 11:29:41;;;;;;;3.40;3.20;;;17.80;82.00;;;;;;5070760;28;20415;-53
2021/10/06 11:32:07;;;;;;;3.20;3.00;;;17.80;84.60;;;;;;5077308;28;20504;-53
2021/10/06 11:34:44;;;;;;;3.20;3.10;;;18.00;84.90;;;;;;5072660;28;20509;-52
2021/10/06 11:37:18;;;;;;;3.60;3.20;;;18.20;83.70;;;;;;5060015;28;20523;-59
2021/10/06 11:39:44;;;;;;;3.23;3.13;;;18.30;83.50;;;;;;5060144;28;20451;-54
2021/10/06 11:42:10;;;;;;;3.30;2.90;;;18.10;83.70;;;;;;5058386;28;20460;-54
2021/10/06 11:44:36;;;;;;;3.23;3.03;;;17.90;82.30;;;;;;5065233;28;20575;-52
2021/10/06 11:47:08;;;;;;;3.70;3.50;;;17.60;82.20;;;;;;5067609;28;20428;-52
2021/10/06 11:49:36;;;;;;;3.33;3.13;;;17.10;82.70;;;;;;5065157;28;20495;-52
2021/10/06 11:52:02;;;;;;;3.30;3.10;;;17.00;85.00;;;;;;5070827;28;20408;-59
2021/10/06 11:54:28;;;;;;;3.23;3.03;;;17.00;85.20;;;;;;5070143;28;20416;-54
2021/10/06 11:57:14;;;;;;;3.43;3.17;;;17.00;86.20;;;;;;5062953;28;20412;-54
2021/10/06 11:59:44;;;;;;;3.20;3.00;;;17.00;85.80;;;;;;5068779;28;20428;-55
2021/10/06 12:02:15;;;;;;;3.17;2.97;;;16.80;87.50;;;;;;5064473;28;20504;-53
2021/10/06 12:04:44;;;;;;;3.50;3.10;;;16.80;86.50;;;;;;5063758;28;20993;-54
2021/10/06 12:07:21;;;;;;;3.33;3.13;;;16.70;86.60;;;;;;5069642;28;20408;-56
2021/10/06 12:09:56;;;;;;;3.80;3.50;;;16.70;87.90;;;;;;5068599;28;20428;-55
2021/10/06 12:12:23;;;;;;;2.97;2.87;;;16.80;87.00;;;;;;5070277;28;20920;-53
2021/10/06 12:14:57;;;;;;;3.27;3.10;;;16.80;86.50;;;;;;5071003;28;20481;-50
2021/10/06 12:17:28;;;;;;;3.00;2.83;;;16.80;87.70;;;;;;5062756;28;20435;-51
2021/10/06 12:20:17;;;;;;;3.20;3.00;;;16.70;88.60;;;;;;5073171;28;20436;-52
2021/10/06 12:22:58;;;;;;;3.67;3.37;;;16.70;87.00;;;;;;5073545;28;20456;-52
2021/10/06 12:25:25;;;;;;;3.30;3.00;;;16.70;88.00;;;;;;5063082;28;20475;-56
2021/10/06 12:27:56;;;;;;;3.07;2.87;;;16.90;88.30;;;;;;5070518;28;20408;-54
2021/10/06 12:30:24;;;;;;;3.43;3.23;;;16.90;87.60;;;;;;5066127;28;20788;-52
2021/10/06 12:33:02;;;;;;;3.17;2.83;;;17.00;86.80;;;;;;5070459;28;20470;-55
2021/10/06 12:35:28;;;;;;;3.30;3.10;;;17.00;84.60;;;;;;5066526;28;20985;-53
2021/10/06 12:37:59;;;;;;;3.60;3.33;;;17.00;84.60;;;;;;5068800;28;20997;-55
2021/10/06 12:40:44;;;;;;;3.40;3.20;;;17.00;84.40;;;;;;5064807;28;20425;-53
2021/10/06 12:43:23;;;;;;;3.80;3.10;;;17.20;85.60;;;;;;5068672;28;20452;-53